createdAt,value
2024-02-11T00:00:30.890Z,9.1
2024-02-11T00:01:31.017Z,9.1
2024-02-11T00:02:31.011Z,9.1
2024-02-11T00:03:30.892Z,9.1
2024-02-11T00:04:31.191Z,9.1
2024-02-11T00:05:32.965Z,9.1
2024-02-11T00:06:30.937Z,9.1
2024-02-11T00:07:30.934Z,9.1
2024-02-11T00:08:30.878Z,9.1
2024-02-11T00:09:30.912Z,9.1
2024-02-11T00:10:30.954Z,9.1
2024-02-11T00:11:30.849Z,9.1
2024-02-11T00:12:31.221Z,9.1
2024-02-11T00:13:30.912Z,9.1
2024-02-11T00:14:31.265Z,9.1
2024-02-11T00:15:30.844Z,9.1
2024-02-11T00:16:30.927Z,9.1
2024-02-11T00:17:31.038Z,9.1
2024-02-11T00:18:30.845Z,9.1
2024-02-11T00:19:30.907Z,9.1
2024-02-11T00:20:30.960Z,9.1
2024-02-11T00:21:30.832Z,9.1
2024-02-11T00:22:31.072Z,9.1
2024-02-11T00:23:30.986Z,9.1
2024-02-11T00:24:30.903Z,9.1
2024-02-11T00:25:30.899Z,9.0
2024-02-11T00:26:32.992Z,9.0
2024-02-11T00:27:31.265Z,9.0
2024-02-11T00:28:30.980Z,9.0
2024-02-11T00:29:30.858Z,9.0
2024-02-11T00:30:30.897Z,9.0
2024-02-11T00:31:30.927Z,9.0
2024-02-11T00:32:31.243Z,9.0
2024-02-11T00:33:30.996Z,9.0
2024-02-11T00:34:30.995Z,9.0
2024-02-11T00:35:31.025Z,9.0
2024-02-11T00:36:30.824Z,9.0
2024-02-11T00:37:31.495Z,9.0
2024-02-11T00:38:30.868Z,8.9
2024-02-11T00:39:30.821Z,8.9
2024-02-11T00:40:30.845Z,8.9
2024-02-11T00:41:30.853Z,8.9
2024-02-11T00:42:31.305Z,8.9
2024-02-11T00:43:30.917Z,8.9
2024-02-11T00:44:30.823Z,8.9
2024-02-11T00:45:30.840Z,8.9
2024-02-11T00:46:30.818Z,8.9
2024-02-11T00:47:33.957Z,8.9
2024-02-11T00:48:30.932Z,8.9
2024-02-11T00:49:30.829Z,8.9
2024-02-11T00:50:30.823Z,8.9
2024-02-11T00:51:31.140Z,8.9
2024-02-11T00:52:31.001Z,8.9
2024-02-11T00:53:30.993Z,8.9
2024-02-11T00:54:30.919Z,8.9
2024-02-11T00:55:30.829Z,8.9
2024-02-11T00:56:31.059Z,8.9
2024-02-11T00:57:30.945Z,8.9
2024-02-11T00:58:30.821Z,8.9
2024-02-11T00:59:30.854Z,8.9
2024-02-11T01:00:30.820Z,8.9
2024-02-11T01:01:30.856Z,8.9
2024-02-11T01:02:31.008Z,8.9
2024-02-11T01:03:30.808Z,8.9
2024-02-11T01:04:30.856Z,8.9
2024-02-11T01:05:30.851Z,8.9
2024-02-11T01:06:30.923Z,8.9
2024-02-11T01:07:32.046Z,8.9
2024-02-11T01:08:34.135Z,8.9
2024-02-11T01:09:30.755Z,8.9
2024-02-11T01:10:30.835Z,8.9
2024-02-11T01:11:30.768Z,8.9
2024-02-11T01:12:31.263Z,8.9
2024-02-11T01:13:30.950Z,8.9
2024-02-11T01:14:30.747Z,8.9
2024-02-11T01:15:30.796Z,8.9
2024-02-11T01:16:30.868Z,8.9
2024-02-11T01:17:31.009Z,8.9
2024-02-11T01:18:30.955Z,8.9
2024-02-11T01:19:30.778Z,8.9
2024-02-11T01:20:30.796Z,8.9
2024-02-11T01:21:30.838Z,8.9
2024-02-11T01:22:31.023Z,8.9
2024-02-11T01:23:30.846Z,8.9
2024-02-11T01:24:30.936Z,8.9
2024-02-11T01:25:30.911Z,8.9
2024-02-11T01:26:30.799Z,8.9
2024-02-11T01:27:31.284Z,8.9
2024-02-11T01:28:31.390Z,8.9
2024-02-11T01:29:34.253Z,8.9
2024-02-11T01:30:30.937Z,8.9
2024-02-11T01:31:30.866Z,8.9
2024-02-11T01:32:31.127Z,8.9
2024-02-11T01:33:30.902Z,8.9
2024-02-11T01:34:30.926Z,8.9
2024-02-11T01:35:31.013Z,8.9
2024-02-11T01:36:30.808Z,8.9
2024-02-11T01:37:30.762Z,8.9
2024-02-11T01:38:30.798Z,8.9
2024-02-11T01:39:30.852Z,8.9
2024-02-11T01:40:30.848Z,8.9
2024-02-11T01:41:30.770Z,8.9
2024-02-11T01:42:30.773Z,8.9
2024-02-11T01:43:30.853Z,8.9
2024-02-11T01:44:30.913Z,8.9
2024-02-11T01:45:30.782Z,8.9
2024-02-11T01:46:30.801Z,8.9
2024-02-11T01:47:31.166Z,8.9
2024-02-11T01:48:30.786Z,8.9
2024-02-11T01:49:32.153Z,8.9
2024-02-11T01:50:30.952Z,9.0
2024-02-11T01:51:30.792Z,9.0
2024-02-11T01:52:30.757Z,9.0
2024-02-11T01:53:30.728Z,9.0
2024-02-11T01:54:31.017Z,9.0
2024-02-11T01:55:30.737Z,9.0
2024-02-11T01:56:30.911Z,9.0
2024-02-11T01:57:30.730Z,9.1
2024-02-11T01:58:30.801Z,9.1
2024-02-11T01:59:30.719Z,9.1
2024-02-11T02:00:30.790Z,9.1
2024-02-11T02:01:30.913Z,9.1
2024-02-11T02:02:30.790Z,9.1
2024-02-11T02:03:30.700Z,9.1
2024-02-11T02:04:30.963Z,9.1
2024-02-11T02:05:30.786Z,9.1
2024-02-11T02:06:30.767Z,9.2
2024-02-11T02:07:30.768Z,9.2
2024-02-11T02:08:30.718Z,9.2
2024-02-11T02:09:30.751Z,9.2
2024-02-11T02:10:33.199Z,9.2
2024-02-11T02:11:30.795Z,9.2
2024-02-11T02:12:30.670Z,9.2
2024-02-11T02:13:30.862Z,9.2
2024-02-11T02:14:30.670Z,9.2
2024-02-11T02:15:30.724Z,9.2
2024-02-11T02:16:30.794Z,9.3
2024-02-11T02:17:30.717Z,9.3
2024-02-11T02:18:30.807Z,9.3
2024-02-11T02:19:30.680Z,9.3
2024-02-11T02:20:30.689Z,9.3
2024-02-11T02:21:30.862Z,9.3
2024-02-11T02:22:30.823Z,9.3
2024-02-11T02:23:30.884Z,9.3
2024-02-11T02:24:30.726Z,9.3
2024-02-11T02:25:30.851Z,9.3
2024-02-11T02:26:30.694Z,9.4
2024-02-11T02:27:30.677Z,9.4
2024-02-11T02:28:30.676Z,9.4
2024-02-11T02:29:30.663Z,9.4
2024-02-11T02:30:30.703Z,9.4
2024-02-11T02:31:32.453Z,9.4
2024-02-11T02:32:30.699Z,9.4
2024-02-11T02:33:30.671Z,9.4
2024-02-11T02:34:30.755Z,9.4
2024-02-11T02:35:30.718Z,9.4
2024-02-11T02:36:30.642Z,9.4
2024-02-11T02:37:30.648Z,9.4
2024-02-11T02:38:30.767Z,9.4
2024-02-11T02:39:30.596Z,9.4
2024-02-11T02:40:30.693Z,9.4
2024-02-11T02:41:30.674Z,9.4
2024-02-11T02:42:30.685Z,9.4
2024-02-11T02:43:30.649Z,9.4
2024-02-11T02:44:30.636Z,9.4
2024-02-11T02:45:30.796Z,9.4
2024-02-11T02:46:30.637Z,9.4
2024-02-11T02:47:30.667Z,9.4
2024-02-11T02:48:30.675Z,9.4
2024-02-11T02:49:30.637Z,9.4
2024-02-11T02:50:30.635Z,9.4
2024-02-11T02:51:30.606Z,9.4
2024-02-11T02:52:32.955Z,9.4
2024-02-11T02:53:30.613Z,9.4
2024-02-11T02:54:30.595Z,9.4
2024-02-11T02:55:30.656Z,9.4
2024-02-11T02:56:30.807Z,9.4
2024-02-11T02:57:30.623Z,9.4
2024-02-11T02:58:30.619Z,9.4
2024-02-11T02:59:30.594Z,9.4
2024-02-11T03:00:30.597Z,9.4
2024-02-11T03:01:30.646Z,9.4
2024-02-11T03:02:30.595Z,9.4
2024-02-11T03:03:30.783Z,9.4
2024-02-11T03:04:30.673Z,9.3
2024-02-11T03:05:30.682Z,9.3
2024-02-11T03:06:30.842Z,9.3
2024-02-11T03:07:30.696Z,9.3
2024-02-11T03:08:30.617Z,9.3
2024-02-11T03:09:30.597Z,9.3
2024-02-11T03:10:30.560Z,9.3
2024-02-11T03:11:30.659Z,9.3
2024-02-11T03:12:30.590Z,9.3
2024-02-11T03:13:32.760Z,9.3
2024-02-11T03:14:30.591Z,9.3
2024-02-11T03:15:30.573Z,9.3
2024-02-11T03:16:30.607Z,9.3
2024-02-11T03:17:30.779Z,9.3
2024-02-11T03:18:30.756Z,9.2
2024-02-11T03:19:30.562Z,9.2
2024-02-11T03:20:30.586Z,9.2
2024-02-11T03:21:30.632Z,9.2
2024-02-11T03:22:30.600Z,9.2
2024-02-11T03:23:30.589Z,9.2
2024-02-11T03:24:30.540Z,9.2
2024-02-11T03:25:30.575Z,9.2
2024-02-11T03:26:32.040Z,9.2
2024-02-11T03:27:30.558Z,9.2
2024-02-11T03:28:30.635Z,9.2
2024-02-11T03:29:30.949Z,9.2
2024-02-11T03:30:30.596Z,9.2
2024-02-11T03:31:30.554Z,9.2
2024-02-11T03:32:30.830Z,9.1
2024-02-11T03:33:30.633Z,9.1
2024-02-11T03:34:33.452Z,9.1
2024-02-11T03:35:30.626Z,9.1
2024-02-11T03:36:30.792Z,9.1
2024-02-11T03:37:31.106Z,9.1
2024-02-11T03:38:30.774Z,9.1
2024-02-11T03:39:31.356Z,9.1
2024-02-11T03:40:30.566Z,9.0
2024-02-11T03:41:30.567Z,9.0
2024-02-11T03:42:30.551Z,9.0
2024-02-11T03:43:30.622Z,9.0
2024-02-11T03:44:30.547Z,9.0
2024-02-11T03:45:30.547Z,9.0
2024-02-11T03:46:30.549Z,9.0
2024-02-11T03:47:30.678Z,8.9
2024-02-11T03:48:30.647Z,8.9
2024-02-11T03:49:30.490Z,8.9
2024-02-11T03:50:30.716Z,8.9
2024-02-11T03:51:30.638Z,8.9
2024-02-11T03:52:30.525Z,8.9
2024-02-11T03:53:30.524Z,8.9
2024-02-11T03:54:30.626Z,8.9
2024-02-11T03:55:33.142Z,8.9
2024-02-11T03:56:30.828Z,8.9
2024-02-11T03:57:30.531Z,8.9
2024-02-11T03:58:30.501Z,8.8
2024-02-11T03:59:30.582Z,8.8
2024-02-11T04:00:30.550Z,8.8
2024-02-11T04:01:30.678Z,8.8
2024-02-11T04:02:30.486Z,8.8
2024-02-11T04:03:30.544Z,8.8
2024-02-11T04:04:30.565Z,8.8
2024-02-11T04:05:30.682Z,8.8
2024-02-11T04:06:30.582Z,8.8
2024-02-11T04:07:30.528Z,8.8
2024-02-11T04:08:30.608Z,8.8
2024-02-11T04:09:30.624Z,8.8
2024-02-11T04:10:30.654Z,8.8
2024-02-11T04:11:30.499Z,8.7
2024-02-11T04:12:30.652Z,8.7
2024-02-11T04:13:30.496Z,8.7
2024-02-11T04:14:30.542Z,8.7
2024-02-11T04:15:30.502Z,8.7
2024-02-11T04:16:32.951Z,8.7
2024-02-11T04:17:30.478Z,8.7
2024-02-11T04:18:30.562Z,8.7
2024-02-11T04:19:30.531Z,8.7
2024-02-11T04:20:30.543Z,8.6
2024-02-11T04:21:30.458Z,8.6
2024-02-11T04:22:30.580Z,8.6
2024-02-11T04:23:30.596Z,8.6
2024-02-11T04:24:30.504Z,8.6
2024-02-11T04:25:30.834Z,8.6
2024-02-11T04:26:30.605Z,8.6
2024-02-11T04:27:30.470Z,8.6
2024-02-11T04:28:30.466Z,8.6
2024-02-11T04:29:30.553Z,8.6
2024-02-11T04:30:30.533Z,8.6
2024-02-11T04:31:30.508Z,8.6
2024-02-11T04:32:30.512Z,8.6
2024-02-11T04:33:30.481Z,8.6
2024-02-11T04:34:30.621Z,8.6
2024-02-11T04:35:30.507Z,8.6
2024-02-11T04:36:30.435Z,8.6
2024-02-11T04:37:33.454Z,8.6
2024-02-11T04:38:30.492Z,8.6
2024-02-11T04:39:30.439Z,8.6
2024-02-11T04:40:30.447Z,8.6
2024-02-11T04:41:30.513Z,8.6
2024-02-11T04:42:30.465Z,8.6
2024-02-11T04:43:30.527Z,8.6
2024-02-11T04:44:30.467Z,8.6
2024-02-11T04:45:30.604Z,8.6
2024-02-11T04:46:30.515Z,8.6
2024-02-11T04:47:31.490Z,8.6
2024-02-11T04:48:30.604Z,8.6
2024-02-11T04:49:30.589Z,8.6
2024-02-11T04:50:30.435Z,8.6
2024-02-11T04:51:30.460Z,8.6
2024-02-11T04:52:30.471Z,8.6
2024-02-11T04:53:30.484Z,8.6
2024-02-11T04:54:30.434Z,8.6
2024-02-11T04:55:30.436Z,8.6
2024-02-11T04:56:30.498Z,8.6
2024-02-11T04:57:30.482Z,8.5
2024-02-11T04:58:33.383Z,8.6
2024-02-11T04:59:30.441Z,8.5
2024-02-11T05:00:30.437Z,8.6
2024-02-11T05:01:30.442Z,8.6
2024-02-11T05:02:30.447Z,8.6
2024-02-11T05:03:30.432Z,8.6
2024-02-11T05:04:30.480Z,8.6
2024-02-11T05:05:30.745Z,8.6
2024-02-11T05:06:30.518Z,8.6
2024-02-11T05:07:30.407Z,8.6
2024-02-11T05:08:30.470Z,8.6
2024-02-11T05:09:30.445Z,8.6
2024-02-11T05:10:30.432Z,8.6
2024-02-11T05:11:30.537Z,8.6
2024-02-11T05:12:30.440Z,8.6
2024-02-11T05:13:30.672Z,8.6
2024-02-11T05:14:30.404Z,8.7
2024-02-11T05:15:30.534Z,8.7
2024-02-11T05:16:30.455Z,8.7
2024-02-11T05:17:30.406Z,8.7
2024-02-11T05:18:30.647Z,8.7
2024-02-11T05:19:33.488Z,8.7
2024-02-11T05:20:30.555Z,8.7
2024-02-11T05:21:30.422Z,8.7
2024-02-11T05:22:30.415Z,8.7
2024-02-11T05:23:30.428Z,8.7
2024-02-11T05:24:30.378Z,8.7
2024-02-11T05:25:30.483Z,8.7
2024-02-11T05:26:30.381Z,8.7
2024-02-11T05:27:30.414Z,8.7
2024-02-11T05:28:30.401Z,8.7
2024-02-11T05:29:30.340Z,8.7
2024-02-11T05:30:30.640Z,8.7
2024-02-11T05:31:30.438Z,8.7
2024-02-11T05:32:30.417Z,8.7
2024-02-11T05:33:30.658Z,8.6
2024-02-11T05:34:30.357Z,8.6
2024-02-11T05:35:30.439Z,8.6
2024-02-11T05:36:30.361Z,8.6
2024-02-11T05:37:30.389Z,8.6
2024-02-11T05:38:33.362Z,8.6
2024-02-11T05:39:30.475Z,8.6
2024-02-11T05:40:33.693Z,8.6
2024-02-11T05:41:30.513Z,8.6
2024-02-11T05:42:30.359Z,8.6
2024-02-11T05:43:30.372Z,8.6
2024-02-11T05:44:30.364Z,8.6
2024-02-11T05:45:30.378Z,8.6
2024-02-11T05:46:30.380Z,8.6
2024-02-11T05:47:30.408Z,8.6
2024-02-11T05:48:30.519Z,8.6
2024-02-11T05:49:30.374Z,8.6
2024-02-11T05:50:30.418Z,8.6
2024-02-11T05:51:30.351Z,8.6
2024-02-11T05:52:31.256Z,8.6
2024-02-11T05:53:30.403Z,8.6
2024-02-11T05:54:30.347Z,8.6
2024-02-11T05:55:30.363Z,8.6
2024-02-11T05:56:30.386Z,8.6
2024-02-11T05:57:30.352Z,8.6
2024-02-11T05:58:30.403Z,8.6
2024-02-11T05:59:30.341Z,8.6
2024-02-11T06:00:30.854Z,8.6
2024-02-11T06:01:33.518Z,8.6
2024-02-11T06:02:30.322Z,8.6
2024-02-11T06:03:30.638Z,8.5
2024-02-11T06:04:30.417Z,8.5
2024-02-11T06:05:30.978Z,8.5
2024-02-11T06:06:30.495Z,8.5
2024-02-11T06:07:30.553Z,8.5
2024-02-11T06:08:30.835Z,8.5
2024-02-11T06:09:30.384Z,8.5
2024-02-11T06:10:30.632Z,8.5
2024-02-11T06:11:30.598Z,8.5
2024-02-11T06:12:30.658Z,8.6
2024-02-11T06:13:30.488Z,8.5
2024-02-11T06:14:30.576Z,8.5
2024-02-11T06:15:30.371Z,8.5
2024-02-11T06:16:30.477Z,8.5
2024-02-11T06:17:30.453Z,8.5
2024-02-11T06:18:30.635Z,8.5
2024-02-11T06:19:30.487Z,8.6
2024-02-11T06:20:31.697Z,8.5
2024-02-11T06:21:31.120Z,8.6
2024-02-11T06:22:34.835Z,8.5
2024-02-11T06:23:30.372Z,8.6
2024-02-11T06:24:30.514Z,8.5
2024-02-11T06:25:30.860Z,8.6
2024-02-11T06:26:30.391Z,8.5
2024-02-11T06:27:30.630Z,8.5
2024-02-11T06:28:30.396Z,8.6
2024-02-11T06:29:30.414Z,8.6
2024-02-11T06:30:30.313Z,8.6
2024-02-11T06:31:31.219Z,8.6
2024-02-11T06:32:32.254Z,8.6
2024-02-11T06:33:30.594Z,8.6
2024-02-11T06:34:30.345Z,8.6
2024-02-11T06:35:30.349Z,8.6
2024-02-11T06:36:30.560Z,8.6
2024-02-11T06:37:30.289Z,8.6
2024-02-11T06:38:30.303Z,8.6
2024-02-11T06:39:30.372Z,8.6
2024-02-11T06:40:30.357Z,8.6
2024-02-11T06:41:30.436Z,8.6
2024-02-11T06:42:31.641Z,8.6
2024-02-11T06:43:30.314Z,8.6
2024-02-11T06:44:30.376Z,8.6
2024-02-11T06:45:30.829Z,8.6
2024-02-11T06:46:30.320Z,8.6
2024-02-11T06:47:30.625Z,8.6
2024-02-11T06:48:30.433Z,8.6
2024-02-11T06:49:30.303Z,8.6
2024-02-11T06:50:30.281Z,8.6
2024-02-11T06:51:30.452Z,8.6
2024-02-11T06:52:30.248Z,8.6
2024-02-11T06:53:30.260Z,8.6
2024-02-11T06:54:31.463Z,8.6
2024-02-11T06:55:30.328Z,8.6
2024-02-11T06:56:30.290Z,8.6
2024-02-11T06:57:30.436Z,8.6
2024-02-11T06:58:30.389Z,8.6
2024-02-11T06:59:30.343Z,8.6
2024-02-11T07:00:30.291Z,8.6
2024-02-11T07:01:30.231Z,8.6
2024-02-11T07:02:30.327Z,8.6
2024-02-11T07:03:31.814Z,8.6
2024-02-11T07:04:34.143Z,8.6
2024-02-11T07:05:30.319Z,8.7
2024-02-11T07:06:30.304Z,8.6
2024-02-11T07:07:30.294Z,8.6
2024-02-11T07:08:30.361Z,8.7
2024-02-11T07:09:30.620Z,8.7
2024-02-11T07:10:30.201Z,8.6
2024-02-11T07:11:30.226Z,8.6
2024-02-11T07:12:30.192Z,8.6
2024-02-11T07:13:32.364Z,8.6
2024-02-11T07:14:30.221Z,8.6
2024-02-11T07:15:30.419Z,8.6
2024-02-11T07:16:30.411Z,8.6
2024-02-11T07:17:30.520Z,8.6
2024-02-11T07:18:30.699Z,8.6
2024-02-11T07:19:30.406Z,8.6
2024-02-11T07:20:30.632Z,8.6
2024-02-11T07:21:30.669Z,8.6
2024-02-11T07:22:30.473Z,8.6
2024-02-11T07:23:30.354Z,8.6
2024-02-11T07:24:32.721Z,8.6
2024-02-11T07:25:30.284Z,8.6
2024-02-11T07:26:30.424Z,8.6
2024-02-11T07:27:30.352Z,8.6
2024-02-11T07:28:30.223Z,8.6
2024-02-11T07:29:30.178Z,8.6
2024-02-11T07:30:30.243Z,8.6
2024-02-11T07:31:30.196Z,8.6
2024-02-11T07:32:30.660Z,8.6
2024-02-11T07:33:30.280Z,8.6
2024-02-11T07:34:30.370Z,8.6
2024-02-11T07:35:30.256Z,8.6
2024-02-11T07:36:30.220Z,8.6
2024-02-11T07:37:30.208Z,8.6
2024-02-11T07:38:30.266Z,8.6
2024-02-11T07:39:30.249Z,8.6
2024-02-11T07:40:30.162Z,8.6
2024-02-11T07:41:30.161Z,8.6
2024-02-11T07:42:30.158Z,8.6
2024-02-11T07:43:30.211Z,8.6
2024-02-11T07:44:30.252Z,8.6
2024-02-11T07:45:32.566Z,8.6
2024-02-11T07:46:30.152Z,8.6
2024-02-11T07:47:30.236Z,8.6
2024-02-11T07:48:30.277Z,8.6
2024-02-11T07:49:30.217Z,8.6
2024-02-11T07:50:30.248Z,8.6
2024-02-11T07:51:30.234Z,8.6
2024-02-11T07:52:30.504Z,8.6
2024-02-11T07:53:30.209Z,8.6
2024-02-11T07:54:30.181Z,8.6
2024-02-11T07:55:30.232Z,8.6
2024-02-11T07:56:30.213Z,8.6
2024-02-11T07:57:30.144Z,8.6
2024-02-11T07:58:30.165Z,8.6
2024-02-11T07:59:30.352Z,8.6
2024-02-11T08:00:30.301Z,8.6
2024-02-11T08:01:30.203Z,8.6
2024-02-11T08:02:30.590Z,8.6
2024-02-11T08:03:30.469Z,8.6
2024-02-11T08:04:30.313Z,8.6
2024-02-11T08:05:31.080Z,8.6
2024-02-11T08:06:33.748Z,8.6
2024-02-11T08:07:30.729Z,8.7
2024-02-11T08:08:30.922Z,8.6
2024-02-11T08:09:30.820Z,8.6
2024-02-11T08:10:30.579Z,8.7
2024-02-11T08:11:30.312Z,8.7
2024-02-11T08:12:30.507Z,8.7
2024-02-11T08:13:30.295Z,8.7
2024-02-11T08:14:30.336Z,8.7
2024-02-11T08:15:30.196Z,8.7
2024-02-11T08:16:30.111Z,8.7
2024-02-11T08:17:30.674Z,8.7
2024-02-11T08:18:30.393Z,8.7
2024-02-11T08:19:33.261Z,8.7
2024-02-11T08:20:30.875Z,8.7
2024-02-11T08:21:31.175Z,8.7
2024-02-11T08:22:30.497Z,8.7
2024-02-11T08:23:30.344Z,8.8
2024-02-11T08:24:30.727Z,8.8
2024-02-11T08:25:30.127Z,8.8
2024-02-11T08:26:31.772Z,8.8
2024-02-11T08:27:30.225Z,8.8
2024-02-11T08:28:30.272Z,8.8
2024-02-11T08:29:30.161Z,8.8
2024-02-11T08:30:30.089Z,8.8
2024-02-11T08:31:30.544Z,8.8
2024-02-11T08:32:30.313Z,8.9
2024-02-11T08:33:30.172Z,8.9
2024-02-11T08:34:30.259Z,8.9
2024-02-11T08:35:30.262Z,8.9
2024-02-11T08:36:30.111Z,8.9
2024-02-11T08:37:30.116Z,8.9
2024-02-11T08:38:30.166Z,8.9
2024-02-11T08:39:30.132Z,9.0
2024-02-11T08:40:30.135Z,9.0
2024-02-11T08:41:30.128Z,9.0
2024-02-11T08:42:30.113Z,9.0
2024-02-11T08:43:30.162Z,9.0
2024-02-11T08:44:30.175Z,9.0
2024-02-11T08:45:30.213Z,9.1
2024-02-11T08:46:30.130Z,9.1
2024-02-11T08:47:31.630Z,9.1
2024-02-11T08:48:30.220Z,9.1
2024-02-11T08:49:30.190Z,9.1
2024-02-11T08:50:30.286Z,9.1
2024-02-11T08:51:30.094Z,9.1
2024-02-11T08:52:30.077Z,9.1
2024-02-11T08:53:30.369Z,9.1
2024-02-11T08:54:30.314Z,9.2
2024-02-11T08:55:30.158Z,9.2
2024-02-11T08:56:30.160Z,9.2
2024-02-11T08:57:30.071Z,9.2
2024-02-11T08:58:30.101Z,9.2
2024-02-11T08:59:30.081Z,9.2
2024-02-11T09:00:30.161Z,9.2
2024-02-11T09:01:30.077Z,9.3
2024-02-11T09:02:32.055Z,9.3
2024-02-11T09:03:30.145Z,9.3
2024-02-11T09:04:30.118Z,9.3
2024-02-11T09:05:30.294Z,9.3
2024-02-11T09:06:30.234Z,9.3
2024-02-11T09:07:30.121Z,9.3
2024-02-11T09:08:31.568Z,9.4
2024-02-11T09:09:30.060Z,9.4
2024-02-11T09:10:30.054Z,9.4
2024-02-11T09:11:30.247Z,9.4
2024-02-11T09:12:30.027Z,9.4
2024-02-11T09:13:30.030Z,9.4
2024-02-11T09:14:30.258Z,9.4
2024-02-11T09:15:30.036Z,9.5
2024-02-11T09:16:30.346Z,9.5
2024-02-11T09:17:30.135Z,9.5
2024-02-11T09:18:30.183Z,9.5
2024-02-11T09:19:30.140Z,9.5
2024-02-11T09:20:30.056Z,9.5
2024-02-11T09:21:30.083Z,9.5
2024-02-11T09:22:30.081Z,9.5
2024-02-11T09:23:30.092Z,9.6
2024-02-11T09:24:30.080Z,9.6
2024-02-11T09:25:30.017Z,9.6
2024-02-11T09:26:30.063Z,9.6
2024-02-11T09:27:30.657Z,9.6
2024-02-11T09:28:30.045Z,9.6
2024-02-11T09:29:31.569Z,9.6
2024-02-11T09:30:30.003Z,9.6
2024-02-11T09:31:30.072Z,9.6
2024-02-11T09:32:30.259Z,9.6
2024-02-11T09:33:30.287Z,9.6
2024-02-11T09:34:30.098Z,9.6
2024-02-11T09:35:30.268Z,9.6
2024-02-11T09:36:30.021Z,9.6
2024-02-11T09:37:30.047Z,9.6
2024-02-11T09:38:30.198Z,9.6
2024-02-11T09:39:30.026Z,9.6
2024-02-11T09:40:30.012Z,9.6
2024-02-11T09:41:30.043Z,9.7
2024-02-11T09:42:30.084Z,9.7
2024-02-11T09:43:30.028Z,9.7
2024-02-11T09:44:30.055Z,9.7
2024-02-11T09:45:30.035Z,9.7
2024-02-11T09:46:29.999Z,9.7
2024-02-11T09:47:30.018Z,9.7
2024-02-11T09:48:30.092Z,9.7
2024-02-11T09:49:30.323Z,9.7
2024-02-11T09:50:31.595Z,9.7
2024-02-11T09:51:30.076Z,9.7
2024-02-11T09:52:30.029Z,9.7
2024-02-11T09:53:30.026Z,9.7
2024-02-11T09:54:30.773Z,9.7
2024-02-11T09:55:30.804Z,9.7
2024-02-11T09:56:30.818Z,9.7
2024-02-11T09:57:30.054Z,9.7
2024-02-11T09:58:31.582Z,9.7
2024-02-11T09:59:30.120Z,9.7
2024-02-11T10:00:30.099Z,9.7
2024-02-11T10:01:30.122Z,9.7
2024-02-11T10:02:30.077Z,9.7
2024-02-11T10:03:30.009Z,9.7
2024-02-11T10:04:30.051Z,9.8
2024-02-11T10:05:30.165Z,9.8
2024-02-11T10:06:32.317Z,9.8
2024-02-11T10:07:30.243Z,9.8
2024-02-11T10:08:30.080Z,9.8
2024-02-11T10:09:30.011Z,9.7
2024-02-11T10:10:30.002Z,9.8
2024-02-11T10:11:31.694Z,9.8
2024-02-11T10:12:30.001Z,9.8
2024-02-11T10:13:30.006Z,9.8
2024-02-11T10:14:30.233Z,9.8
2024-02-11T10:15:29.956Z,9.8
2024-02-11T10:16:29.992Z,9.7
2024-02-11T10:17:30.036Z,9.8
2024-02-11T10:18:30.204Z,9.7
2024-02-11T10:19:29.989Z,9.7
2024-02-11T10:20:30.142Z,9.8
2024-02-11T10:21:29.947Z,9.7
2024-02-11T10:22:29.989Z,9.7
2024-02-11T10:23:30.163Z,9.7
2024-02-11T10:24:29.987Z,9.7
2024-02-11T10:25:29.985Z,9.7
2024-02-11T10:26:30.074Z,9.7
2024-02-11T10:27:30.035Z,9.7
2024-02-11T10:28:30.059Z,9.7
2024-02-11T10:29:30.298Z,9.7
2024-02-11T10:30:29.980Z,9.7
2024-02-11T10:31:30.040Z,9.7
2024-02-11T10:32:32.362Z,9.7
2024-02-11T10:33:30.457Z,9.7
2024-02-11T10:34:29.988Z,9.7
2024-02-11T10:35:30.037Z,9.7
2024-02-11T10:36:29.955Z,9.7
2024-02-11T10:37:29.969Z,9.7
2024-02-11T10:38:30.060Z,9.7
2024-02-11T10:39:30.200Z,9.7
2024-02-11T10:40:30.057Z,9.7
2024-02-11T10:41:30.117Z,9.7
2024-02-11T10:42:29.958Z,9.7
2024-02-11T10:43:29.985Z,9.7
2024-02-11T10:44:30.154Z,9.7
2024-02-11T10:45:30.143Z,9.7
2024-02-11T10:46:30.059Z,9.7
2024-02-11T10:47:30.064Z,9.7
2024-02-11T10:48:30.097Z,9.7
2024-02-11T10:49:29.994Z,9.7
2024-02-11T10:50:30.156Z,9.7
2024-02-11T10:51:29.979Z,9.7
2024-02-11T10:52:30.166Z,9.7
2024-02-11T10:53:32.492Z,9.7
2024-02-11T10:54:30.000Z,9.7
2024-02-11T10:55:30.187Z,9.7
2024-02-11T10:56:29.986Z,9.7
2024-02-11T10:57:29.988Z,9.7
2024-02-11T10:58:30.103Z,9.6
2024-02-11T10:59:30.009Z,9.6
2024-02-11T11:00:29.998Z,9.6
2024-02-11T11:01:29.864Z,9.6
2024-02-11T11:02:29.990Z,9.6
2024-02-11T11:03:30.210Z,9.6
2024-02-11T11:04:30.045Z,9.6
2024-02-11T11:05:30.291Z,9.6
2024-02-11T11:06:29.960Z,9.6
2024-02-11T11:07:34.176Z,9.6
2024-02-11T11:08:30.023Z,9.6
2024-02-11T11:09:29.935Z,9.6
2024-02-11T11:10:29.924Z,9.6
2024-02-11T11:11:29.882Z,9.6
2024-02-11T11:12:29.922Z,9.6
2024-02-11T11:13:30.177Z,9.6
2024-02-11T11:14:32.102Z,9.6
2024-02-11T11:15:29.891Z,9.6
2024-02-11T11:16:29.876Z,9.6
2024-02-11T11:17:30.015Z,9.6
2024-02-11T11:18:29.922Z,9.6
2024-02-11T11:19:29.905Z,9.6
2024-02-11T11:20:30.010Z,9.6
2024-02-11T11:21:31.417Z,9.6
2024-02-11T11:22:30.028Z,9.5
2024-02-11T11:23:29.917Z,9.6
2024-02-11T11:24:29.855Z,9.5
2024-02-11T11:25:30.607Z,9.5
2024-02-11T11:26:29.978Z,9.5
2024-02-11T11:27:29.850Z,9.5
2024-02-11T11:28:29.872Z,9.5
2024-02-11T11:29:30.615Z,9.5
2024-02-11T11:30:29.866Z,9.5
2024-02-11T11:31:29.932Z,9.5
2024-02-11T11:32:29.952Z,9.5
2024-02-11T11:33:32.770Z,9.5
2024-02-11T11:34:29.968Z,9.5
2024-02-11T11:35:32.031Z,9.5
2024-02-11T11:36:29.871Z,9.5
2024-02-11T11:37:29.918Z,9.5
2024-02-11T11:38:30.042Z,9.5
2024-02-11T11:39:33.036Z,9.5
2024-02-11T11:40:30.516Z,9.5
2024-02-11T11:41:30.655Z,9.5
2024-02-11T11:42:30.679Z,9.5
2024-02-11T11:43:30.647Z,9.5
2024-02-11T11:44:30.574Z,9.5
2024-02-11T11:45:33.811Z,9.5
2024-02-11T11:46:30.526Z,9.5
2024-02-11T11:47:30.789Z,9.5
2024-02-11T11:48:30.592Z,9.5
2024-02-11T11:49:30.581Z,9.5
2024-02-11T11:50:30.618Z,9.5
2024-02-11T11:51:33.801Z,9.5
2024-02-11T11:52:29.856Z,9.4
2024-02-11T11:53:29.923Z,9.5
2024-02-11T11:54:29.896Z,9.4
2024-02-11T11:55:30.006Z,9.4
2024-02-11T11:56:32.243Z,9.4
2024-02-11T11:57:32.843Z,9.4
2024-02-11T11:58:29.805Z,9.4
2024-02-11T11:59:29.871Z,9.4
2024-02-11T12:00:29.795Z,9.5
2024-02-11T12:01:29.918Z,9.5
2024-02-11T12:02:30.116Z,9.4
2024-02-11T12:03:29.860Z,9.5
2024-02-11T12:04:29.846Z,9.4
2024-02-11T12:05:29.910Z,9.5
2024-02-11T12:06:29.909Z,9.5
2024-02-11T12:07:29.811Z,9.5
2024-02-11T12:08:30.022Z,9.5
2024-02-11T12:09:29.901Z,9.4
2024-02-11T12:10:29.901Z,9.5
2024-02-11T12:11:30.007Z,9.5
2024-02-11T12:12:29.872Z,9.5
2024-02-11T12:13:29.878Z,9.5
2024-02-11T12:14:29.885Z,9.4
2024-02-11T12:15:29.923Z,9.5
2024-02-11T12:16:29.872Z,9.5
2024-02-11T12:17:32.782Z,9.5
2024-02-11T12:18:29.825Z,9.5
2024-02-11T12:19:29.821Z,9.5
2024-02-11T12:20:29.829Z,9.5
2024-02-11T12:21:29.810Z,9.5
2024-02-11T12:22:29.803Z,9.5
2024-02-11T12:23:30.031Z,9.5
2024-02-11T12:24:29.796Z,9.5
2024-02-11T12:25:29.801Z,9.5
2024-02-11T12:26:31.019Z,9.5
2024-02-11T12:27:29.754Z,9.5
2024-02-11T12:28:29.732Z,9.5
2024-02-11T12:29:29.823Z,9.5
2024-02-11T12:30:29.811Z,9.5
2024-02-11T12:31:29.788Z,9.5
2024-02-11T12:32:31.319Z,9.5
2024-02-11T12:33:29.899Z,9.5
2024-02-11T12:34:30.200Z,9.5
2024-02-11T12:35:29.779Z,9.5
2024-02-11T12:36:29.977Z,9.5
2024-02-11T12:37:30.467Z,9.5
2024-02-11T12:38:32.561Z,9.5
2024-02-11T12:39:29.761Z,9.6
2024-02-11T12:40:29.761Z,9.6
2024-02-11T12:41:29.792Z,9.6
2024-02-11T12:42:29.877Z,9.6
2024-02-11T12:43:29.727Z,9.6
2024-02-11T12:44:29.805Z,9.6
2024-02-11T12:45:29.787Z,9.6
2024-02-11T12:46:29.928Z,9.6
2024-02-11T12:47:29.976Z,9.6
2024-02-11T12:48:29.790Z,9.6
2024-02-11T12:49:29.738Z,9.6
2024-02-11T12:50:29.802Z,9.6
2024-02-11T12:51:29.728Z,9.6
2024-02-11T12:52:29.764Z,9.6
2024-02-11T12:53:29.753Z,9.6
2024-02-11T12:54:29.787Z,9.7
2024-02-11T12:55:29.707Z,9.7
2024-02-11T12:56:29.768Z,9.7
2024-02-11T12:57:29.721Z,9.7
2024-02-11T12:58:29.724Z,9.7
2024-02-11T12:59:32.921Z,9.7
2024-02-11T13:00:29.799Z,9.7
2024-02-11T13:01:29.738Z,9.7
2024-02-11T13:02:29.764Z,9.7
2024-02-11T13:03:30.513Z,9.7
2024-02-11T13:04:30.589Z,9.7
2024-02-11T13:05:30.575Z,9.7
2024-02-11T13:06:30.538Z,9.7
2024-02-11T13:07:30.492Z,9.7
2024-02-11T13:08:30.518Z,9.7
2024-02-11T13:09:29.739Z,9.8
2024-02-11T13:10:30.445Z,9.8
2024-02-11T13:11:30.538Z,9.8
2024-02-11T13:12:30.405Z,9.8
2024-02-11T13:13:29.700Z,9.8
2024-02-11T13:14:30.500Z,9.8
2024-02-11T13:15:29.769Z,9.8
2024-02-11T13:16:32.750Z,9.8
2024-02-11T13:17:30.464Z,9.8
2024-02-11T13:18:30.723Z,9.8
2024-02-11T13:19:30.585Z,9.8
2024-02-11T13:20:33.772Z,9.8
2024-02-11T13:21:30.456Z,9.8
2024-02-11T13:22:29.737Z,9.8
2024-02-11T13:23:30.372Z,9.8
2024-02-11T13:24:30.477Z,9.7
2024-02-11T13:25:30.385Z,9.7
2024-02-11T13:26:29.932Z,9.7
2024-02-11T13:27:29.719Z,9.7
2024-02-11T13:28:29.728Z,9.7
2024-02-11T13:29:29.699Z,9.7
2024-02-11T13:30:30.355Z,9.7
2024-02-11T13:31:30.394Z,9.7
2024-02-11T13:32:30.660Z,9.7
2024-02-11T13:33:30.352Z,9.7
2024-02-11T13:34:30.439Z,9.7
2024-02-11T13:35:30.441Z,9.7
2024-02-11T13:36:30.412Z,9.7
2024-02-11T13:37:30.355Z,9.7
2024-02-11T13:38:30.484Z,9.7
2024-02-11T13:39:30.358Z,9.7
2024-02-11T13:40:29.880Z,9.7
2024-02-11T13:41:32.844Z,9.7
2024-02-11T13:42:30.478Z,9.7
2024-02-11T13:43:30.360Z,9.7
2024-02-11T13:44:30.470Z,9.7
2024-02-11T13:45:29.652Z,9.7
2024-02-11T13:46:29.676Z,9.7